Buoy 21539

sailwx.info

Track history (hours):
 
Tides and Currents Weather Stations Pressure Air Temp Water Temp Dewpoint Dewpoint Depression Visibility Wind Speed Wind Dir Waves Ship Positions

Drifting buoy 21539

Last reported at 2014-Oct-31 17:10 UTC. Time now 2014-Nov-01 01:53 UTC.
Position N 49°06' E 171°15'.

Barometer 1006.9 mb
Water temperature 8.5 ° C

Date/timePositionNaut miles runAvg speedWind from/ knotsBaromVisibWave heightAir tempDewpointWater temp
2014-Oct-31 17:10N 49°06' E 171°15'0 0.0 1006.9 8.5
2014-Oct-31 16:10N 49°06' E 171°15'0 0.0 1006.3 8.6
2014-Oct-31 15:10N 49°06' E 171°15'1 0.2 1005.9 8.6
2014-Oct-31 07:10N 49°06' E 171°13'5 1.3 1002.4 8.8
2014-Oct-31 03:10N 49°08' E 171°06'0 0.0 1001.0 8.8
2014-Oct-31 01:10N 49°08' E 171°06'0 0.0 1000.8 8.8
2014-Oct-31 00:10N 49°08' E 171°06'1 1.5 1000.9 8.8
2014-Oct-30 23:10N 49°08' E 171°04'0 0.0 1001.0 8.8
2014-Oct-30 22:10N 49°08' E 171°04'3 0.9 1000.9 8.8
2014-Oct-30 19:10N 49°09' E 171°00'0 0.1 1000.4 8.8
2014-Oct-30 16:10N 49°09' E 170°60'0 0.0 998.9 8.9
2014-Oct-30 15:10N 49°09' E 170°60'2 0.9 998.2 8.9
2014-Oct-30 13:10N 49°09' E 170°57'5 1.0 998.0 8.9
2014-Oct-30 08:10N 49°09' E 170°50'6 5.7 1001.6 8.9
2014-Oct-30 07:10N 49°10' E 170°58'6 1.0 1002.7 8.9
2014-Oct-30 01:10N 49°09' E 170°50'0 0.0 1007.0 9.0
2014-Oct-29 23:10N 49°09' E 170°50'1 0.2 1009.9 9.0
2014-Oct-29 17:10N 49°10' E 170°48'1 0.6 1011.6 8.9
2014-Oct-29 16:10N 49°10' E 170°47'2 2.2 1011.7 9.0
2014-Oct-29 15:10N 49°09' E 170°44'0 0.0 1011.8 8.9
2014-Oct-29 10:10N 49°09' E 170°44'2 0.4 1011.7 9.0
2014-Oct-29 05:10N 49°10' E 170°41'5 2.3 1010.8 9.0
2014-Oct-29 03:10N 49°11' E 170°34'0 0.0 1009.8 9.0
2014-Oct-29 02:10N 49°11' E 170°34'0 0.0 1009.9 9.0
2014-Oct-29 01:10N 49°11' E 170°34'2 0.3 1010.1 9.0
2014-Oct-28 18:10N 49°10' E 170°32'3 1.6 1018.2 9.1
2014-Oct-28 16:10N 49°08' E 170°28'0 0.0 1020.2 9.1
2014-Oct-28 14:10N 49°08' E 170°28'4 0.7 1022.9 9.1
2014-Oct-28 08:10N 49°11' E 170°24'2 0.4 1027.0 9.1
2014-Oct-28 04:10N 49°10' E 170°22'0 0.0 1028.3 9.1
2014-Oct-28 01:10N 49°10' E 170°22'2 1.6 1029.0 9.1
2014-Oct-28 00:10N 49°11' E 170°20'0 0.0 1029.1 9.1
2014-Oct-27 22:10N 49°11' E 170°20'1 0.2 1030.0 9.1
2014-Oct-27 17:10N 49°10' E 170°22'2 1.8 1029.4 9.1
2014-Oct-27 16:10N 49°10' E 170°19'1 0.9 1029.3 9.1
2014-Oct-27 15:10N 49°11' E 170°20'1 0.9 1029.1 9.1
2014-Oct-27 14:10N 49°10' E 170°19'0 0.0 1029.2 9.1
2014-Oct-27 11:10N 49°10' E 170°19'2 2.2 1028.2 9.2
2014-Oct-27 10:10N 49°11' E 170°16'3 2.6 1027.8 9.2
2014-Oct-27 09:10N 49°13' E 170°19'0 0.0 1027.0 9.2
2014-Oct-27 07:10N 49°13' E 170°19'0 0.0 1025.5 9.2
2014-Oct-27 04:10N 49°13' E 170°19'0 0.0 1022.9 9.2
2014-Oct-27 02:10N 49°13' E 170°19'2 0.5 1021.2 9.2
2014-Oct-26 21:10N 49°15' E 170°17'2 0.3 1019.6 9.2
2014-Oct-26 16:10N 49°16' E 170°15'0 0.0 1017.2 9.2
2014-Oct-26 15:10N 49°16' E 170°15'2 0.2 1016.7 9.2
2014-Oct-26 07:10N 49°17' E 170°13'2 0.5 1016.1 9.3
2014-Oct-26 04:10N 49°18' E 170°11'0 0.0 1016.1 9.4
2014-Oct-26 02:10N 49°18' E 170°11'1 0.6 1016.7 9.4
2014-Oct-26 01:10N 49°18' E 170°11'0 0.2 1017.3 9.4
2014-Oct-26 00:10N 49°18' E 170°10'3 0.4 1018.2 9.3
2014-Oct-25 18:10N 49°20' E 170°08'0 0.0 1020.5 9.2
2014-Oct-25 17:10N 49°20' E 170°08'1 0.9 1020.7 9.2
2014-Oct-25 16:10N 49°21' E 170°09'1 0.4 1020.8 9.2
2014-Oct-25 13:10N 49°21' E 170°07'0 0.0 1022.0 9.2
2014-Oct-25 10:10N 49°21' E 170°07'1 0.7 1022.6 9.2
2014-Oct-25 08:10N 49°22' E 170°06'1 0.4 1022.3 9.2
2014-Oct-25 06:10N 49°21' E 170°07'0 0.0 1021.9 9.2
2014-Oct-25 04:10N 49°21' E 170°07'1 0.4 1021.7 9.2
2014-Oct-25 02:10N 49°21' E 170°05'1 0.4 1021.6 9.2
2014-Oct-24 23:10N 49°22' E 170°06'0 0.0 1022.1 9.2
2014-Oct-24 22:10N 49°22' E 170°06'2 0.4 1022.0 9.2
2014-Oct-24 17:10N 49°20' E 170°05'0 0.0 1020.9 9.2
2014-Oct-24 16:10N 49°20' E 170°05'3 1.6 1021.1 9.2
2014-Oct-24 14:10N 49°24' E 170°05'0 0.0 1021.5 9.2
2014-Oct-24 13:10N 49°24' E 170°05'0 0.0 1021.8 9.2
2014-Oct-24 10:10N 49°24' E 170°05'0 0.0 1022.0 9.2
2014-Oct-24 09:10N 49°24' E 170°05'1 1.5 1022.0 9.2
2014-Oct-24 08:10N 49°24' E 170°08'0 0.0 1021.8 9.2
2014-Oct-24 04:10N 49°24' E 170°08'0 0.0 1021.2 9.3
2014-Oct-24 03:10N 49°24' E 170°08'0 0.0 1020.9 9.3
2014-Oct-24 02:10N 49°24' E 170°08'1 0.3 1020.8 9.3
2014-Oct-23 22:10N 49°25' E 170°09'1 0.1 1021.4 9.2
2014-Oct-23 17:10N 49°25' E 170°09'0 0.0 1019.7 9.2
2014-Oct-23 15:10N 49°25' E 170°09'0 0.0 1019.3 9.2
2014-Oct-23 14:10N 49°25' E 170°09'0 0.0 1019.3 9.2
2014-Oct-23 10:10N 49°25' E 170°09'0 0.0 1018.0 9.3
2014-Oct-23 09:10N 49°25' E 170°09'1 0.4 1017.2 9.2
2014-Oct-23 06:10N 49°26' E 170°11'0 0.0 1015.8 9.2
2014-Oct-23 05:10N 49°26' E 170°11'7 1.5 1015.1 9.2
2014-Oct-23 00:10N 49°33' E 170°13'0 0.0 1016.2 9.2
2014-Oct-22 22:10N 49°33' E 170°13'0 0.0 1016.2 9.2
2014-Oct-22 19:10N 49°33' E 170°13'0 0.0 1016.5 9.2
2014-Oct-22 17:10N 49°33' E 170°13'0 0.0 1016.7 9.1
2014-Oct-22 16:10N 49°33' E 170°13'0 0.0 1016.8 9.1
2014-Oct-22 13:10N 49°33' E 170°13'0 0.0 1019.0 9.1
2014-Oct-22 09:10N 49°33' E 170°13'0 0.0 1020.6 9.2
2014-Oct-22 07:10N 49°33' E 170°13'0 0.0 1021.8 9.2
2014-Oct-22 03:10N 49°33' E 170°13'0 0.0 1022.8 9.1
2014-Oct-22 01:10N 49°33' E 170°13'0 0.0 1024.0 9.1
2014-Oct-21 17:10N 49°33' E 170°13'   1024.6 9.0
Track history (hours):
 
Tides and Currents Weather Stations Pressure Air Temp Water Temp Dewpoint Dewpoint Depression Visibility Wind Speed Wind Dir Waves Ship Positions

Drifting buoy 21539

Last reported at 2014-Oct-31 17:10 UTC. Time now 2014-Nov-01 01:53 UTC.
Position N 49°06' E 171°15'.

Barometer 1006.9 mb
Water temperature 8.5 ° C

Date/timePositionNaut miles runAvg speedWind from/ knotsBaromVisibWave heightAir tempDewpointWater temp
2014-Oct-31 17:10N 49°06' E 171°15'0 0.0 1006.9 8.5
2014-Oct-31 16:10N 49°06' E 171°15'0 0.0 1006.3 8.6
2014-Oct-31 15:10N 49°06' E 171°15'1 0.2 1005.9 8.6
2014-Oct-31 07:10N 49°06' E 171°13'5 1.3 1002.4 8.8
2014-Oct-31 03:10N 49°08' E 171°06'0 0.0 1001.0 8.8
2014-Oct-31 01:10N 49°08' E 171°06'0 0.0 1000.8 8.8
2014-Oct-31 00:10N 49°08' E 171°06'1 1.5 1000.9 8.8
2014-Oct-30 23:10N 49°08' E 171°04'0 0.0 1001.0 8.8
2014-Oct-30 22:10N 49°08' E 171°04'3 0.9 1000.9 8.8
2014-Oct-30 19:10N 49°09' E 171°00'0 0.1 1000.4 8.8
2014-Oct-30 16:10N 49°09' E 170°60'0 0.0 998.9 8.9
2014-Oct-30 15:10N 49°09' E 170°60'2 0.9 998.2 8.9
2014-Oct-30 13:10N 49°09' E 170°57'5 1.0 998.0 8.9
2014-Oct-30 08:10N 49°09' E 170°50'6 5.7 1001.6 8.9
2014-Oct-30 07:10N 49°10' E 170°58'6 1.0 1002.7 8.9
2014-Oct-30 01:10N 49°09' E 170°50'0 0.0 1007.0 9.0
2014-Oct-29 23:10N 49°09' E 170°50'1 0.2 1009.9 9.0
2014-Oct-29 17:10N 49°10' E 170°48'1 0.6 1011.6 8.9
2014-Oct-29 16:10N 49°10' E 170°47'2 2.2 1011.7 9.0
2014-Oct-29 15:10N 49°09' E 170°44'0 0.0 1011.8 8.9
2014-Oct-29 10:10N 49°09' E 170°44'2 0.4 1011.7 9.0
2014-Oct-29 05:10N 49°10' E 170°41'5 2.3 1010.8 9.0
2014-Oct-29 03:10N 49°11' E 170°34'0 0.0 1009.8 9.0
2014-Oct-29 02:10N 49°11' E 170°34'0 0.0 1009.9 9.0
2014-Oct-29 01:10N 49°11' E 170°34'2 0.3 1010.1 9.0
2014-Oct-28 18:10N 49°10' E 170°32'3 1.6 1018.2 9.1
2014-Oct-28 16:10N 49°08' E 170°28'0 0.0 1020.2 9.1
2014-Oct-28 14:10N 49°08' E 170°28'4 0.7 1022.9 9.1
2014-Oct-28 08:10N 49°11' E 170°24'2 0.4 1027.0 9.1
2014-Oct-28 04:10N 49°10' E 170°22'0 0.0 1028.3 9.1
2014-Oct-28 01:10N 49°10' E 170°22'2 1.6 1029.0 9.1
2014-Oct-28 00:10N 49°11' E 170°20'0 0.0 1029.1 9.1
2014-Oct-27 22:10N 49°11' E 170°20'1 0.2 1030.0 9.1
2014-Oct-27 17:10N 49°10' E 170°22'2 1.8 1029.4 9.1
2014-Oct-27 16:10N 49°10' E 170°19'1 0.9 1029.3 9.1
2014-Oct-27 15:10N 49°11' E 170°20'1 0.9 1029.1 9.1
2014-Oct-27 14:10N 49°10' E 170°19'0 0.0 1029.2 9.1
2014-Oct-27 11:10N 49°10' E 170°19'2 2.2 1028.2 9.2
2014-Oct-27 10:10N 49°11' E 170°16'3 2.6 1027.8 9.2
2014-Oct-27 09:10N 49°13' E 170°19'0 0.0 1027.0 9.2
2014-Oct-27 07:10N 49°13' E 170°19'0 0.0 1025.5 9.2
2014-Oct-27 04:10N 49°13' E 170°19'0 0.0 1022.9 9.2
2014-Oct-27 02:10N 49°13' E 170°19'2 0.5 1021.2 9.2
2014-Oct-26 21:10N 49°15' E 170°17'2 0.3 1019.6 9.2
2014-Oct-26 16:10N 49°16' E 170°15'0 0.0 1017.2 9.2
2014-Oct-26 15:10N 49°16' E 170°15'2 0.2 1016.7 9.2
2014-Oct-26 07:10N 49°17' E 170°13'2 0.5 1016.1 9.3
2014-Oct-26 04:10N 49°18' E 170°11'0 0.0 1016.1 9.4
2014-Oct-26 02:10N 49°18' E 170°11'1 0.6 1016.7 9.4
2014-Oct-26 01:10N 49°18' E 170°11'0 0.2 1017.3 9.4
2014-Oct-26 00:10N 49°18' E 170°10'3 0.4 1018.2 9.3
2014-Oct-25 18:10N 49°20' E 170°08'0 0.0 1020.5 9.2
2014-Oct-25 17:10N 49°20' E 170°08'1 0.9 1020.7 9.2
2014-Oct-25 16:10N 49°21' E 170°09'1 0.4 1020.8 9.2
2014-Oct-25 13:10N 49°21' E 170°07'0 0.0 1022.0 9.2
2014-Oct-25 10:10N 49°21' E 170°07'1 0.7 1022.6 9.2
2014-Oct-25 08:10N 49°22' E 170°06'1 0.4 1022.3 9.2
2014-Oct-25 06:10N 49°21' E 170°07'0 0.0 1021.9 9.2
2014-Oct-25 04:10N 49°21' E 170°07'1 0.4 1021.7 9.2
2014-Oct-25 02:10N 49°21' E 170°05'1 0.4 1021.6 9.2
2014-Oct-24 23:10N 49°22' E 170°06'0 0.0 1022.1 9.2
2014-Oct-24 22:10N 49°22' E 170°06'2 0.4 1022.0 9.2
2014-Oct-24 17:10N 49°20' E 170°05'0 0.0 1020.9 9.2
2014-Oct-24 16:10N 49°20' E 170°05'3 1.6 1021.1 9.2
2014-Oct-24 14:10N 49°24' E 170°05'0 0.0 1021.5 9.2
2014-Oct-24 13:10N 49°24' E 170°05'0 0.0 1021.8 9.2
2014-Oct-24 10:10N 49°24' E 170°05'0 0.0 1022.0 9.2
2014-Oct-24 09:10N 49°24' E 170°05'1 1.5 1022.0 9.2
2014-Oct-24 08:10N 49°24' E 170°08'0 0.0 1021.8 9.2
2014-Oct-24 04:10N 49°24' E 170°08'0 0.0 1021.2 9.3
2014-Oct-24 03:10N 49°24' E 170°08'0 0.0 1020.9 9.3
2014-Oct-24 02:10N 49°24' E 170°08'1 0.3 1020.8 9.3
2014-Oct-23 22:10N 49°25' E 170°09'1 0.1 1021.4 9.2
2014-Oct-23 17:10N 49°25' E 170°09'0 0.0 1019.7 9.2
2014-Oct-23 15:10N 49°25' E 170°09'0 0.0 1019.3 9.2
2014-Oct-23 14:10N 49°25' E 170°09'0 0.0 1019.3 9.2
2014-Oct-23 10:10N 49°25' E 170°09'0 0.0 1018.0 9.3
2014-Oct-23 09:10N 49°25' E 170°09'1 0.4 1017.2 9.2
2014-Oct-23 06:10N 49°26' E 170°11'0 0.0 1015.8 9.2
2014-Oct-23 05:10N 49°26' E 170°11'7 1.5 1015.1 9.2
2014-Oct-23 00:10N 49°33' E 170°13'0 0.0 1016.2 9.2
2014-Oct-22 22:10N 49°33' E 170°13'0 0.0 1016.2 9.2
2014-Oct-22 19:10N 49°33' E 170°13'0 0.0 1016.5 9.2
2014-Oct-22 17:10N 49°33' E 170°13'0 0.0 1016.7 9.1
2014-Oct-22 16:10N 49°33' E 170°13'0 0.0 1016.8 9.1
2014-Oct-22 13:10N 49°33' E 170°13'0 0.0 1019.0 9.1
2014-Oct-22 09:10N 49°33' E 170°13'0 0.0 1020.6 9.2
2014-Oct-22 07:10N 49°33' E 170°13'0 0.0 1021.8 9.2
2014-Oct-22 03:10N 49°33' E 170°13'0 0.0 1022.8 9.1
2014-Oct-22 01:10N 49°33' E 170°13'0 0.0 1024.0 9.1
2014-Oct-21 17:10N 49°33' E 170°13'   1024.6 9.0

Dump ship's entire track history